sensor_id;sensor_type;location;lat;lon;timestamp;pressure;altitude;pressure_sealevel;temperature;humidity
57374;BME280;43964;53.890;25.340;2023-11-22T00:01:49;1029.6;;;-0.7;50.8
57374;BME280;43964;53.890;25.340;2023-11-22T00:06:15;1029.6;;;-0.7;50.7
57374;BME280;43964;53.890;25.340;2023-11-22T00:11:17;1029.6;;;-0.7;50.7
57374;BME280;43964;53.890;25.340;2023-11-22T00:16:15;1029.5;;;-0.6;50.8
57374;BME280;43964;53.890;25.340;2023-11-22T00:21:59;1029.5;;;-0.6;50.8
57374;BME280;43964;53.890;25.340;2023-11-22T00:26:45;1029.5;;;-0.7;50.8
57374;BME280;43964;53.890;25.340;2023-11-22T00:31:25;1029.5;;;-0.7;50.8
57374;BME280;43964;53.890;25.340;2023-11-22T00:36:37;1029.4;;;-0.8;50.9
57374;BME280;43964;53.890;25.340;2023-11-22T00:46:59;1029.5;;;-0.7;50.9
57374;BME280;43964;53.890;25.340;2023-11-22T00:51:49;1029.6;;;-1;50.9
57374;BME280;43964;53.890;25.340;2023-11-22T00:56:15;1029.6;;;-1.1;51.2
57374;BME280;43964;53.890;25.340;2023-11-22T01:01:15;1029.6;;;-1.3;51.1
57374;BME280;43964;53.890;25.340;2023-11-22T01:06:57;1029.6;;;-1.3;51.5
57374;BME280;43964;53.890;25.340;2023-11-22T01:11:59;1029.5;;;-1.3;51.8
57374;BME280;43964;53.890;25.340;2023-11-22T01:16:49;1029.5;;;-1.3;51.9
57374;BME280;43964;53.890;25.340;2023-11-22T01:26:37;1029.7;;;-1.7;52.3
57374;BME280;43964;53.890;25.340;2023-11-22T01:31:49;1029.7;;;-1.7;53.1
57374;BME280;43964;53.890;25.340;2023-11-22T01:36:49;1029.7;;;-1.7;53.5
57374;BME280;43964;53.890;25.340;2023-11-22T01:46:49;1029.8;;;-2.1;53.3
57374;BME280;43964;53.890;25.340;2023-11-22T01:51:17;1029.8;;;-2.2;54.4
57374;BME280;43964;53.890;25.340;2023-11-22T01:56:15;1029.7;;;-2.2;54.5
57374;BME280;43964;53.890;25.340;2023-11-22T02:11:17;1029.7;;;-2.4;54.8
57374;BME280;43964;53.890;25.340;2023-11-22T02:16:17;1029.7;;;-2.4;55.4
57374;BME280;43964;53.890;25.340;2023-11-22T02:21:49;1029.8;;;-2.3;55.7
57374;BME280;43964;53.890;25.340;2023-11-22T02:26:59;1029.8;;;-2.1;55.6
57374;BME280;43964;53.890;25.340;2023-11-22T02:31:47;1029.8;;;-2.1;55.6
57374;BME280;43964;53.890;25.340;2023-11-22T02:36:27;1029.8;;;-2;55.6
57374;BME280;43964;53.890;25.340;2023-11-22T02:46:37;1029.8;;;-2.3;55.3
57374;BME280;43964;53.890;25.340;2023-11-22T02:51:59;1029.8;;;-2.4;55.8
57374;BME280;43964;53.890;25.340;2023-11-22T02:56:25;1029.8;;;-2.3;56.2
57374;BME280;43964;53.890;25.340;2023-11-22T03:01:25;1029.8;;;-2.2;56.4
57374;BME280;43964;53.890;25.340;2023-11-22T03:06:37;1029.9;;;-2.1;56.3
57374;BME280;43964;53.890;25.340;2023-11-22T03:11:29;1029.8;;;-2.1;56.5
57374;BME280;43964;53.890;25.340;2023-11-22T03:16:59;1029.8;;;-2;55.9
57374;BME280;43964;53.890;25.340;2023-11-22T03:21:49;1029.7;;;-2;56
57374;BME280;43964;53.890;25.340;2023-11-22T03:26:15;1029.7;;;-1.9;56
57374;BME280;43964;53.890;25.340;2023-11-22T03:31:59;1029.7;;;-1.9;55.9
57374;BME280;43964;53.890;25.340;2023-11-22T03:36:25;1029.8;;;-2;56
57374;BME280;43964;53.890;25.340;2023-11-22T03:46:17;1030;;;-1.8;55.5
57374;BME280;43964;53.890;25.340;2023-11-22T03:51:59;1030;;;-1.8;55.9
57374;BME280;43964;53.890;25.340;2023-11-22T04:01:59;1030.3;;;-1.8;55.8
57374;BME280;43964;53.890;25.340;2023-11-22T04:06:59;1030.4;;;-1.8;55.8
57374;BME280;43964;53.890;25.340;2023-11-22T04:11:49;1030.4;;;-1.7;56
57374;BME280;43964;53.890;25.340;2023-11-22T04:16:15;1030.5;;;-1.5;56
57374;BME280;43964;53.890;25.340;2023-11-22T04:21:25;1030.6;;;-1.4;56
57374;BME280;43964;53.890;25.340;2023-11-22T04:31:59;1030.6;;;-1.3;55.4
57374;BME280;43964;53.890;25.340;2023-11-22T04:37:01;1030.7;;;-1.3;55.7
57374;BME280;43964;53.890;25.340;2023-11-22T04:46:17;1030.7;;;-1.1;55.6
57374;BME280;43964;53.890;25.340;2023-11-22T05:06:15;1030.7;;;-1.6;55.8
57374;BME280;43964;53.890;25.340;2023-11-22T05:11:39;1030.7;;;-1.6;56
57374;BME280;43964;53.890;25.340;2023-11-22T05:16:59;1030.7;;;-1.5;55.9
57374;BME280;43964;53.890;25.340;2023-11-22T05:21:47;1030.8;;;-1.5;55.8
57374;BME280;43964;53.890;25.340;2023-11-22T05:26:45;1031;;;-1.4;55.7
57374;BME280;43964;53.890;25.340;2023-11-22T05:31:15;1031;;;-1.3;55.6
57374;BME280;43964;53.890;25.340;2023-11-22T05:36:17;1031.1;;;-1.3;55.5
57374;BME280;43964;53.890;25.340;2023-11-22T05:46:15;1031.1;;;-1.3;55.3
57374;BME280;43964;53.890;25.340;2023-11-22T05:51:15;1031.1;;;-1.5;55.4
57374;BME280;43964;53.890;25.340;2023-11-22T05:56:17;1031.2;;;-1.5;55.7
57374;BME280;43964;53.890;25.340;2023-11-22T06:01:21;1031.2;;;-1.3;55.6
57374;BME280;43964;53.890;25.340;2023-11-22T06:06:57;1031.2;;;-1.2;55.5
57374;BME280;43964;53.890;25.340;2023-11-22T06:11:39;1031.2;;;-1.1;55.5
57374;BME280;43964;53.890;25.340;2023-11-22T06:16:45;1031.2;;;-1.2;55.5
57374;BME280;43964;53.890;25.340;2023-11-22T06:21:23;1031.2;;;-1.2;55.4
57374;BME280;43964;53.890;25.340;2023-11-22T06:26:59;1031.3;;;-1.1;55.5
57374;BME280;43964;53.890;25.340;2023-11-22T06:31:57;1031.3;;;-1.1;55.4
57374;BME280;43964;53.890;25.340;2023-11-22T06:36:37;1031.4;;;-1.2;55.4
57374;BME280;43964;53.890;25.340;2023-11-22T06:56:55;1031.7;;;-1.6;55.4
57374;BME280;43964;53.890;25.340;2023-11-22T07:01:17;1031.7;;;-1.6;55.5
57374;BME280;43964;53.890;25.340;2023-11-22T07:06:47;1031.7;;;-1.5;55.4
57374;BME280;43964;53.890;25.340;2023-11-22T07:11:21;1031.6;;;-1.4;55.1
57374;BME280;43964;53.890;25.340;2023-11-22T07:16:45;1031.7;;;-1.6;54.9
57374;BME280;43964;53.890;25.340;2023-11-22T07:21:57;1031.6;;;-1.4;54.9
57374;BME280;43964;53.890;25.340;2023-11-22T07:26:37;1031.7;;;-1.4;54.8
57374;BME280;43964;53.890;25.340;2023-11-22T07:31:15;1031.8;;;-1.3;54.8
57374;BME280;43964;53.890;25.340;2023-11-22T07:36:37;1031.8;;;-1.4;54.8
57374;BME280;43964;53.890;25.340;2023-11-22T07:41:15;1031.8;;;-1.5;54.8
57374;BME280;43964;53.890;25.340;2023-11-22T07:51:57;1032.1;;;-2;54.3
57374;BME280;43964;53.890;25.340;2023-11-22T07:56:45;1032.1;;;-2.1;54.4
57374;BME280;43964;53.890;25.340;2023-11-22T08:01:17;1032.3;;;-2;54.3
57374;BME280;43964;53.890;25.340;2023-11-22T08:06:45;1032.2;;;-1.9;53.7
57374;BME280;43964;53.890;25.340;2023-11-22T08:11:57;1032.3;;;-2;53.3
57374;BME280;43964;53.890;25.340;2023-11-22T08:16:37;1032.3;;;-2;53.1
57374;BME280;43964;53.890;25.340;2023-11-22T08:21:15;1032.3;;;-2;52.6
57374;BME280;43964;53.890;25.340;2023-11-22T08:26:15;1032.3;;;-2;52.4
57374;BME280;43964;53.890;25.340;2023-11-22T08:31:47;1032.4;;;-2;52.5
57374;BME280;43964;53.890;25.340;2023-11-22T08:36:57;1032.5;;;-2;52.4
57374;BME280;43964;53.890;25.340;2023-11-22T08:56:37;1032.7;;;-2.4;52
57374;BME280;43964;53.890;25.340;2023-11-22T09:01:59;1032.7;;;-2.1;51.5
57374;BME280;43964;53.890;25.340;2023-11-22T09:06:37;1032.6;;;-1.5;51.2
57374;BME280;43964;53.890;25.340;2023-11-22T09:11:15;1032.5;;;-1.2;51
57374;BME280;43964;53.890;25.340;2023-11-22T09:16:17;1032.5;;;-1.2;51
57374;BME280;43964;53.890;25.340;2023-11-22T09:21:17;1032.5;;;-1.1;51.1
57374;BME280;43964;53.890;25.340;2023-11-22T09:26:57;1032.5;;;-1;50.9
57374;BME280;43964;53.890;25.340;2023-11-22T09:31:49;1032.4;;;-0.8;50.4
57374;BME280;43964;53.890;25.340;2023-11-22T09:36:47;1032.5;;;-0.6;50.3
57374;BME280;43964;53.890;25.340;2023-11-22T09:46:49;1032.3;;;0;49
57374;BME280;43964;53.890;25.340;2023-11-22T09:51:57;1032.3;;;0;49.1
57374;BME280;43964;53.890;25.340;2023-11-22T09:56:51;1032.3;;;-0.4;48.9
57374;BME280;43964;53.890;25.340;2023-11-22T10:01:27;1032.3;;;-0.6;48.8
57374;BME280;43964;53.890;25.340;2023-11-22T10:06:17;1032.3;;;-0.6;48.3
57374;BME280;43964;53.890;25.340;2023-11-22T10:11:51;1032.3;;;-0.7;48.5
57374;BME280;43964;53.890;25.340;2023-11-22T10:16:59;1032.3;;;-0.6;48.2
57374;BME280;43964;53.890;25.340;2023-11-22T10:22:00;1032.3;;;-0.7;47.4
57374;BME280;43964;53.890;25.340;2023-11-22T10:26:17;1032.4;;;-0.9;47.1
57374;BME280;43964;53.890;25.340;2023-11-22T10:31:23;1032.4;;;-0.9;46.8
57374;BME280;43964;53.890;25.340;2023-11-22T10:36:37;1032.4;;;-1;46.8
57374;BME280;43964;53.890;25.340;2023-11-22T10:46:35;1032.6;;;-1;47.5
57374;BME280;43964;53.890;25.340;2023-11-22T10:51:15;1032.7;;;-1.2;47.4
57374;BME280;43964;53.890;25.340;2023-11-22T10:56:25;1032.7;;;-1.5;46.8
57374;BME280;43964;53.890;25.340;2023-11-22T11:01:31;1032.6;;;-1.5;46.5
57374;BME280;43964;53.890;25.340;2023-11-22T11:07:01;1032.6;;;-1.3;46.5
57374;BME280;43964;53.890;25.340;2023-11-22T11:16:45;1032.5;;;-1;45.6
57374;BME280;43964;53.890;25.340;2023-11-22T11:21:15;1032.5;;;-0.9;45.9
57374;BME280;43964;53.890;25.340;2023-11-22T11:26:15;1032.5;;;-0.5;46.2
57374;BME280;43964;53.890;25.340;2023-11-22T11:31:39;1032.5;;;-0.3;46.1
57374;BME280;43964;53.890;25.340;2023-11-22T11:36:17;1032.5;;;-0.3;45.5
57374;BME280;43964;53.890;25.340;2023-11-22T11:51:39;1032.5;;;-1.4;45.1
57374;BME280;43964;53.890;25.340;2023-11-22T11:56:58;1032.5;;;-1.5;44.7
57374;BME280;43964;53.890;25.340;2023-11-22T12:01:52;1032.5;;;-1.5;44.5
57374;BME280;43964;53.890;25.340;2023-11-22T12:06:45;1032.3;;;-1.5;44.7
57374;BME280;43964;53.890;25.340;2023-11-22T12:11:51;1032.3;;;-1.6;44.7
57374;BME280;43964;53.890;25.340;2023-11-22T12:16:37;1032.2;;;-1.7;44.5
57374;BME280;43964;53.890;25.340;2023-11-22T12:21:57;1032;;;-1.6;44.6
57374;BME280;43964;53.890;25.340;2023-11-22T12:26:47;1032;;;-1.4;44.5
57374;BME280;43964;53.890;25.340;2023-11-22T12:36:27;1032;;;-1.5;44.7
57374;BME280;43964;53.890;25.340;2023-11-22T12:51:25;1032;;;-1.5;44.4
57374;BME280;43964;53.890;25.340;2023-11-22T13:11:47;1032;;;-1.3;44.3
57374;BME280;43964;53.890;25.340;2023-11-22T13:21:17;1032;;;-1.3;44
57374;BME280;43964;53.890;25.340;2023-11-22T13:31:17;1032.1;;;-1.9;44.4
57374;BME280;43964;53.890;25.340;2023-11-22T13:41:59;1032.2;;;-1.9;44.6
57374;BME280;43964;53.890;25.340;2023-11-22T13:56:37;1032.1;;;-2.1;44.8
57374;BME280;43964;53.890;25.340;2023-11-22T14:16:15;1032.4;;;-2.4;44.9
57374;BME280;43964;53.890;25.340;2023-11-22T14:36:27;1032.4;;;-3.2;45.2
57374;BME280;43964;53.890;25.340;2023-11-22T14:42:01;1032.5;;;-3.2;45.4
57374;BME280;43964;53.890;25.340;2023-11-22T14:46:37;1032.6;;;-3.2;45.7
57374;BME280;43964;53.890;25.340;2023-11-22T14:51:47;1032.6;;;-3.1;45.9
57374;BME280;43964;53.890;25.340;2023-11-22T14:56:15;1032.5;;;-3.1;46
57374;BME280;43964;53.890;25.340;2023-11-22T15:01:15;1032.4;;;-3.1;46
57374;BME280;43964;53.890;25.340;2023-11-22T15:06:27;1032.4;;;-3.3;46.1
57374;BME280;43964;53.890;25.340;2023-11-22T15:11:35;1032.2;;;-3.4;46.3
57374;BME280;43964;53.890;25.340;2023-11-22T15:21:59;1032.1;;;-3.5;46.8
57374;BME280;43964;53.890;25.340;2023-11-22T15:26:45;1031.9;;;-3.4;46.7
57374;BME280;43964;53.890;25.340;2023-11-22T16:21:57;1032;;;-3.9;46.7
57374;BME280;43964;53.890;25.340;2023-11-22T16:26:15;1031.6;;;-4.3;47.8
57374;BME280;43964;53.890;25.340;2023-11-22T16:31:45;1031.7;;;-4.4;47.9
57374;BME280;43964;53.890;25.340;2023-11-22T16:36:27;1031.6;;;-4.4;48.2
57374;BME280;43964;53.890;25.340;2023-11-22T16:41:49;1031.6;;;-4.4;48.2
57374;BME280;43964;53.890;25.340;2023-11-22T16:46:17;1031.8;;;-4.5;48.5
57374;BME280;43964;53.890;25.340;2023-11-22T17:01:59;1032;;;-4.6;49.2
57374;BME280;43964;53.890;25.340;2023-11-22T17:06:45;1032;;;-4.6;48.9
57374;BME280;43964;53.890;25.340;2023-11-22T17:11:59;1032;;;-4.6;49
57374;BME280;43964;53.890;25.340;2023-11-22T17:16:49;1032;;;-4.6;49.2
57374;BME280;43964;53.890;25.340;2023-11-22T17:21:59;1032;;;-4.6;49.3
57374;BME280;43964;53.890;25.340;2023-11-22T17:26:17;1031.8;;;-4.6;49.4
57374;BME280;43964;53.890;25.340;2023-11-22T17:31:15;1031.9;;;-4.6;49.4
57374;BME280;43964;53.890;25.340;2023-11-22T17:36:27;1031.8;;;-4.6;49.3
57374;BME280;43964;53.890;25.340;2023-11-22T17:41:15;1031.8;;;-4.7;49.5
57374;BME280;43964;53.890;25.340;2023-11-22T17:51:59;1031.7;;;-4.7;49.6
57374;BME280;43964;53.890;25.340;2023-11-22T17:56:45;1031.6;;;-4.8;49.4
57374;BME280;43964;53.890;25.340;2023-11-22T18:01:59;1031.6;;;-5;49.6
57374;BME280;43964;53.890;25.340;2023-11-22T18:06:35;1031.7;;;-5.1;49.5
57374;BME280;43964;53.890;25.340;2023-11-22T18:16:39;1031.5;;;-5.3;49.4
57374;BME280;43964;53.890;25.340;2023-11-22T18:21:33;1031.2;;;-5.4;50.4
57374;BME280;43964;53.890;25.340;2023-11-22T18:26:17;1031;;;-5.3;50.6
57374;BME280;43964;53.890;25.340;2023-11-22T18:31:50;1030.8;;;-5.3;50
57374;BME280;43964;53.890;25.340;2023-11-22T18:36:59;1030.8;;;-5.4;50.3
57374;BME280;43964;53.890;25.340;2023-11-22T18:41:59;1031.1;;;-5.3;50.5
57374;BME280;43964;53.890;25.340;2023-11-22T18:46:47;1031.3;;;-5.3;50.1
57374;BME280;43964;53.890;25.340;2023-11-22T18:52:01;1031.5;;;-5.3;50.1
57374;BME280;43964;53.890;25.340;2023-11-22T19:01:45;1031.3;;;-5.1;50.8
57374;BME280;43964;53.890;25.340;2023-11-22T19:11:35;1031;;;-5.1;50.7
57374;BME280;43964;53.890;25.340;2023-11-22T19:16:17;1030.9;;;-5;51
57374;BME280;43964;53.890;25.340;2023-11-22T19:21:25;1030.8;;;-4.9;51.1
57374;BME280;43964;53.890;25.340;2023-11-22T19:26:57;1030.6;;;-4.8;51
57374;BME280;43964;53.890;25.340;2023-11-22T19:36:35;1030.7;;;-4.8;50.8
57374;BME280;43964;53.890;25.340;2023-11-22T19:46:15;1030.7;;;-4.6;50.7
57374;BME280;43964;53.890;25.340;2023-11-22T19:51:45;1030.6;;;-4.6;50.7
57374;BME280;43964;53.890;25.340;2023-11-22T19:56:37;1030.6;;;-4.5;50.8
57374;BME280;43964;53.890;25.340;2023-11-22T20:01:33;1030.6;;;-4.4;51
57374;BME280;43964;53.890;25.340;2023-11-22T20:06:17;1030.5;;;-4.3;51.1
57374;BME280;43964;53.890;25.340;2023-11-22T20:11:17;1030.4;;;-4.1;51.1
57374;BME280;43964;53.890;25.340;2023-11-22T20:21:53;1030.1;;;-3.8;50.7
57374;BME280;43964;53.890;25.340;2023-11-22T20:26:42;1030;;;-3.7;50.8
57374;BME280;43964;53.890;25.340;2023-11-22T20:31:55;1029.7;;;-3.5;50.7
57374;BME280;43964;53.890;25.340;2023-11-22T20:36:15;1029.5;;;-3.4;50.6
57374;BME280;43964;53.890;25.340;2023-11-22T20:41:43;1029.3;;;-3.3;50.5
57374;BME280;43964;53.890;25.340;2023-11-22T20:46:35;1029.2;;;-3.2;50.5
57374;BME280;43964;53.890;25.340;2023-11-22T20:51:17;1029.1;;;-3.2;50.2
57374;BME280;43964;53.890;25.340;2023-11-22T20:56:27;1028.9;;;-3.3;50.3
57374;BME280;43964;53.890;25.340;2023-11-22T21:06:59;1028.6;;;-3;50.3
57374;BME280;43964;53.890;25.340;2023-11-22T21:11:57;1028.6;;;-3;50.1
57374;BME280;43964;53.890;25.340;2023-11-22T21:16:59;1028.6;;;-3;50
57374;BME280;43964;53.890;25.340;2023-11-22T21:21:59;1028.6;;;-3;50.1
57374;BME280;43964;53.890;25.340;2023-11-22T21:26:35;1028.6;;;-3;50.2
57374;BME280;43964;53.890;25.340;2023-11-22T21:31:45;1028.4;;;-3;50.2
57374;BME280;43964;53.890;25.340;2023-11-22T21:36:35;1028.4;;;-3.1;50.3
57374;BME280;43964;53.890;25.340;2023-11-22T21:46:15;1028.4;;;-3.1;50.3
57374;BME280;43964;53.890;25.340;2023-11-22T21:51:17;1027.9;;;-3.2;50.5
57374;BME280;43964;53.890;25.340;2023-11-22T21:56:59;1027.8;;;-3.4;50.5
57374;BME280;43964;53.890;25.340;2023-11-22T22:01:59;1027.7;;;-3.4;50.6
57374;BME280;43964;53.890;25.340;2023-11-22T22:06:17;1027.6;;;-3.4;50.8
57374;BME280;43964;53.890;25.340;2023-11-22T22:11:57;1027.4;;;-3.3;50.8
57374;BME280;43964;53.890;25.340;2023-11-22T22:16:35;1027.4;;;-3.3;50.5
57374;BME280;43964;53.890;25.340;2023-11-22T22:21:53;1027.3;;;-3.4;50.7
57374;BME280;43964;53.890;25.340;2023-11-22T22:26:15;1027.1;;;-3.3;50.7
57374;BME280;43964;53.890;25.340;2023-11-22T22:31:17;1027.1;;;-3.3;50.8
57374;BME280;43964;53.890;25.340;2023-11-22T22:36:15;1027;;;-3.4;51
57374;BME280;43964;53.890;25.340;2023-11-22T22:46:49;1026.7;;;-3.5;51
57374;BME280;43964;53.890;25.340;2023-11-22T22:51:59;1026.7;;;-3.5;51.2
57374;BME280;43964;53.890;25.340;2023-11-22T22:56:59;1026.5;;;-3.4;51.6
57374;BME280;43964;53.890;25.340;2023-11-22T23:01:57;1026.3;;;-3.3;51.6
57374;BME280;43964;53.890;25.340;2023-11-22T23:06:33;1026.2;;;-3.3;51.5
57374;BME280;43964;53.890;25.340;2023-11-22T23:11:17;1026;;;-3.3;51.6
57374;BME280;43964;53.890;25.340;2023-11-22T23:16:15;1026.1;;;-3.3;52
57374;BME280;43964;53.890;25.340;2023-11-22T23:21:51;1026.2;;;-3.3;52.2
57374;BME280;43964;53.890;25.340;2023-11-22T23:26:27;1025.9;;;-3.2;52.7
57374;BME280;43964;53.890;25.340;2023-11-22T23:31:37;1025.8;;;-3.1;53
57374;BME280;43964;53.890;25.340;2023-11-22T23:36:57;1025.6;;;-3;53.1
57374;BME280;43964;53.890;25.340;2023-11-22T23:46:25;1025.3;;;-3;53.1
57374;BME280;43964;53.890;25.340;2023-11-22T23:51:57;1025.1;;;-3;52.8
57374;BME280;43964;53.890;25.340;2023-11-22T23:56:33;1025;;;-3;53.7
